createdAt,value
2022-08-27T00:02:25.596Z,7.70
2022-08-27T00:05:54.587Z,8.00
2022-08-27T00:09:26.796Z,7.90
2022-08-27T00:12:57.074Z,8.60
2022-08-27T00:16:25.092Z,8.20
2022-08-27T00:20:00.499Z,8.10
2022-08-27T00:23:28.051Z,7.60
2022-08-27T00:26:56.775Z,8.00
2022-08-27T00:30:25.458Z,8.40
2022-08-27T00:33:55.376Z,8.70
2022-08-27T00:37:22.602Z,7.90
2022-08-27T00:40:50.250Z,7.80
2022-08-27T00:44:17.864Z,7.90
2022-08-27T00:47:48.621Z,7.50
2022-08-27T00:51:16.154Z,7.80
2022-08-27T00:54:43.137Z,7.30
2022-08-27T00:58:21.553Z,7.50
2022-08-27T01:02:07.670Z,7.70
2022-08-27T01:05:38.577Z,8.60
2022-08-27T01:09:15.028Z,7.70
2022-08-27T01:12:43.995Z,7.80
2022-08-27T01:16:12.302Z,8.00
2022-08-27T01:19:43.850Z,7.60
2022-08-27T01:23:19.363Z,7.90
2022-08-27T01:26:46.587Z,7.40
2022-08-27T01:30:18.455Z,7.90
2022-08-27T01:34:00.187Z,8.50
2022-08-27T01:37:28.946Z,7.20
2022-08-27T01:40:59.374Z,7.90
2022-08-27T01:44:27.318Z,7.80
2022-08-27T01:52:47.242Z,6.80
2022-08-27T01:56:15.672Z,7.70
2022-08-27T01:59:43.284Z,7.20
2022-08-27T02:03:12.502Z,7.00
2022-08-27T02:06:40.373Z,7.30
2022-08-27T02:10:10.596Z,7.30
2022-08-27T02:13:39.533Z,7.10
2022-08-27T02:17:06.575Z,7.40
2022-08-27T02:20:35.022Z,7.30
2022-08-27T02:24:02.485Z,7.00
2022-08-27T02:27:29.837Z,7.40
2022-08-27T02:30:57.553Z,8.60
2022-08-27T02:34:25.048Z,7.40
2022-08-27T02:37:52.425Z,7.30
2022-08-27T02:41:19.932Z,7.50
2022-08-27T02:44:47.635Z,7.90
2022-08-27T02:48:15.135Z,8.20
2022-08-27T02:51:45.086Z,8.10
2022-08-27T02:55:13.844Z,8.30
2022-08-27T02:58:42.421Z,8.10
2022-08-27T03:02:16.299Z,8.10
2022-08-27T03:05:43.736Z,8.00
2022-08-27T03:09:11.390Z,7.30
2022-08-27T03:12:38.439Z,7.80
2022-08-27T03:16:05.728Z,7.70
2022-08-27T03:19:33.007Z,7.90
2022-08-27T03:23:00.293Z,8.30
2022-08-27T03:26:28.585Z,7.50
2022-08-27T03:29:56.601Z,7.60
2022-08-27T03:33:26.583Z,8.10
2022-08-27T03:36:53.676Z,7.30
2022-08-27T03:40:21.312Z,8.00
2022-08-27T03:43:48.983Z,7.80
2022-08-27T03:47:16.957Z,7.70
2022-08-27T03:50:48.254Z,8.00
2022-08-27T03:54:15.480Z,7.90
2022-08-27T03:57:42.824Z,7.80
2022-08-27T04:01:12.515Z,7.90
2022-08-27T04:04:40.360Z,8.40
2022-08-27T04:08:08.585Z,7.70
2022-08-27T04:11:36.952Z,8.60
2022-08-27T04:15:07.562Z,8.40
2022-08-27T04:18:37.524Z,8.30
2022-08-27T04:22:06.537Z,8.00
2022-08-27T04:25:33.786Z,7.20
2022-08-27T04:29:01.094Z,8.60
2022-08-27T04:32:30.073Z,7.60
2022-08-27T04:36:03.559Z,7.90
2022-08-27T04:39:31.714Z,8.10
2022-08-27T04:42:58.859Z,7.60
2022-08-27T04:46:29.259Z,7.60
2022-08-27T04:49:56.586Z,8.00
2022-08-27T04:53:25.016Z,7.60
2022-08-27T04:56:52.711Z,8.40
2022-08-27T05:00:21.133Z,7.80
2022-08-27T05:03:48.317Z,8.50
2022-08-27T05:07:15.205Z,8.10
2022-08-27T05:10:48.619Z,8.00
2022-08-27T05:14:17.812Z,9.00
2022-08-27T05:17:44.499Z,9.20
2022-08-27T05:21:17.242Z,8.40
2022-08-27T05:24:50.212Z,8.00
2022-08-27T05:28:21.908Z,8.70
2022-08-27T05:31:55.254Z,7.80
2022-08-27T05:35:22.409Z,9.00
2022-08-27T05:38:50.697Z,8.60
2022-08-27T05:42:18.283Z,8.60
2022-08-27T05:45:47.289Z,9.30
2022-08-27T05:49:14.982Z,8.30
2022-08-27T05:52:44.125Z,8.90
2022-08-27T05:56:15.754Z,8.80
2022-08-27T06:00:00.593Z,8.50
2022-08-27T06:03:28.469Z,8.50
2022-08-27T06:06:56.817Z,8.30
2022-08-27T06:10:24.066Z,8.20
2022-08-27T06:13:52.647Z,8.30
2022-08-27T06:17:20.604Z,8.40
2022-08-27T06:20:48.081Z,8.20
2022-08-27T06:24:16.213Z,8.20
2022-08-27T06:27:43.356Z,8.60
2022-08-27T06:31:13.050Z,8.90
2022-08-27T06:34:44.071Z,8.20
2022-08-27T06:38:12.199Z,9.30
2022-08-27T06:41:39.645Z,8.50
2022-08-27T06:45:12.906Z,8.20
2022-08-27T06:48:40.920Z,7.60
2022-08-27T06:52:08.478Z,8.00
2022-08-27T06:55:42.273Z,8.60
2022-08-27T06:59:11.727Z,8.20
2022-08-27T07:02:39.438Z,8.30
2022-08-27T07:06:09.891Z,8.30
2022-08-27T07:09:37.435Z,8.10
2022-08-27T07:13:05.020Z,8.60
2022-08-27T07:16:32.532Z,7.90
2022-08-27T07:20:00.298Z,7.30
2022-08-27T07:23:27.495Z,7.80
2022-08-27T07:26:54.802Z,8.00
2022-08-27T07:30:21.933Z,7.20
2022-08-27T07:33:52.289Z,7.80
2022-08-27T07:37:22.470Z,7.80
2022-08-27T07:40:52.638Z,8.00
2022-08-27T07:44:33.076Z,7.20
2022-08-27T07:48:01.922Z,8.00
2022-08-27T07:51:32.810Z,7.40
2022-08-27T07:55:00.814Z,6.50
2022-08-27T07:58:27.936Z,6.30
2022-08-27T08:01:55.265Z,7.50
2022-08-27T08:05:22.909Z,6.90
2022-08-27T08:08:52.512Z,7.10
2022-08-27T08:12:22.070Z,6.60
2022-08-27T08:15:54.367Z,6.70
2022-08-27T08:19:22.465Z,7.50
2022-08-27T08:22:52.901Z,7.40
2022-08-27T08:26:20.244Z,7.30
2022-08-27T08:29:48.700Z,6.60
2022-08-27T08:33:17.137Z,6.90
2022-08-27T08:36:46.284Z,6.60
2022-08-27T08:40:32.398Z,7.00
2022-08-27T08:44:05.350Z,6.30
2022-08-27T08:47:42.856Z,6.40
2022-08-27T08:51:17.725Z,6.50
2022-08-27T08:54:45.931Z,6.50
2022-08-27T08:58:35.104Z,6.20
2022-08-27T09:02:04.458Z,5.90
2022-08-27T09:05:34.700Z,6.10
2022-08-27T09:09:08.173Z,6.10
2022-08-27T09:12:35.713Z,6.20
2022-08-27T09:16:08.033Z,6.20
2022-08-27T09:19:35.943Z,5.60
2022-08-27T09:23:15.637Z,6.60
2022-08-27T09:26:45.609Z,6.00
2022-08-27T09:30:21.137Z,6.20
2022-08-27T09:33:55.942Z,6.90
2022-08-27T09:37:34.695Z,6.00
2022-08-27T09:41:17.456Z,6.60
2022-08-27T09:44:53.718Z,5.70
2022-08-27T09:48:24.298Z,6.40
2022-08-27T09:51:52.523Z,6.60
2022-08-27T09:55:32.474Z,6.60
2022-08-27T09:59:06.039Z,6.40
2022-08-27T10:02:33.826Z,6.40
2022-08-27T10:06:03.718Z,6.10
2022-08-27T10:09:38.725Z,6.10
2022-08-27T10:13:10.684Z,5.80
2022-08-27T10:16:53.088Z,7.30
2022-08-27T10:20:29.632Z,6.00
2022-08-27T10:24:14.940Z,6.50
2022-08-27T10:27:53.033Z,6.50
2022-08-27T10:31:33.051Z,6.60
2022-08-27T10:35:11.816Z,6.30
2022-08-27T10:38:45.214Z,6.60
2022-08-27T10:42:23.174Z,6.20
2022-08-27T10:46:00.235Z,5.90
2022-08-27T10:49:39.263Z,6.10
2022-08-27T10:53:14.428Z,6.20
2022-08-27T10:56:54.263Z,6.20
2022-08-27T11:00:41.523Z,6.20
2022-08-27T11:04:12.128Z,6.40
2022-08-27T11:07:44.053Z,6.00
2022-08-27T11:15:13.166Z,5.70
2022-08-27T11:18:46.537Z,5.90
2022-08-27T11:22:26.084Z,6.30
2022-08-27T11:25:58.325Z,6.60
2022-08-27T11:29:33.815Z,6.40
2022-08-27T11:33:13.878Z,6.50
2022-08-27T11:37:03.477Z,6.20
2022-08-27T11:40:44.117Z,5.60
2022-08-27T11:44:17.846Z,6.10
2022-08-27T11:47:55.415Z,5.70
2022-08-27T11:51:35.374Z,6.10
2022-08-27T11:55:27.728Z,5.70
2022-08-27T12:02:26.368Z,5.10
2022-08-27T12:06:18.975Z,5.20
2022-08-27T12:09:59.358Z,4.70
2022-08-27T12:13:36.362Z,4.40
2022-08-27T12:17:13.108Z,4.50
2022-08-27T12:20:51.875Z,4.50
2022-08-27T12:24:41.499Z,4.80
2022-08-27T12:28:10.976Z,4.10
2022-08-27T12:31:41.480Z,3.90
2022-08-27T12:35:15.098Z,3.80
2022-08-27T12:38:51.126Z,4.30
2022-08-27T12:42:24.270Z,5.00
2022-08-27T12:45:59.175Z,4.40
2022-08-27T12:49:46.203Z,4.00
2022-08-27T12:53:26.897Z,4.30
2022-08-27T12:57:09.516Z,5.20
2022-08-27T13:04:08.462Z,3.80
2022-08-27T13:07:44.311Z,4.40
2022-08-27T13:11:19.587Z,4.30
2022-08-27T13:14:48.960Z,4.20
2022-08-27T13:18:30.104Z,4.90
2022-08-27T13:26:33.453Z,4.80
2022-08-27T13:30:35.685Z,4.30
2022-08-27T13:34:44.105Z,4.40
2022-08-27T13:38:27.430Z,4.20
2022-08-27T13:41:57.050Z,3.90
2022-08-27T13:45:27.676Z,4.60
2022-08-27T13:49:00.540Z,4.30
2022-08-27T13:52:34.413Z,4.60
2022-08-27T13:56:05.606Z,4.70
2022-08-27T13:59:39.032Z,4.30
2022-08-27T14:03:28.315Z,4.50
2022-08-27T14:06:56.492Z,4.20
2022-08-27T14:10:38.328Z,4.00
2022-08-27T14:14:12.936Z,4.20
2022-08-27T14:17:41.110Z,4.30
2022-08-27T14:21:08.491Z,4.30
2022-08-27T14:24:35.606Z,4.40
2022-08-27T14:28:03.286Z,4.90
2022-08-27T14:31:32.098Z,4.60
2022-08-27T14:35:00.692Z,4.30
2022-08-27T14:38:33.310Z,6.20
2022-08-27T14:42:00.708Z,5.10
2022-08-27T14:45:28.595Z,5.90
2022-08-27T14:48:58.132Z,5.80
2022-08-27T14:52:25.849Z,6.00
2022-08-27T14:55:53.157Z,6.30
2022-08-27T14:59:20.872Z,6.40
2022-08-27T15:02:49.772Z,5.90
2022-08-27T15:06:20.212Z,7.50
2022-08-27T15:09:55.719Z,7.00
2022-08-27T15:13:26.011Z,7.60
2022-08-27T15:16:57.258Z,5.70
2022-08-27T15:20:25.698Z,5.00
2022-08-27T15:24:02.140Z,5.50
2022-08-27T15:27:38.397Z,5.30
2022-08-27T15:31:06.748Z,5.00
2022-08-27T15:34:35.687Z,6.10
2022-08-27T15:38:03.481Z,5.20
2022-08-27T15:41:34.071Z,6.30
2022-08-27T15:45:03.930Z,5.60
2022-08-27T15:48:33.356Z,5.40
2022-08-27T15:52:01.531Z,5.20
2022-08-27T15:55:31.588Z,5.50
2022-08-27T15:59:01.049Z,5.70
2022-08-27T16:02:30.937Z,6.00
2022-08-27T16:05:59.557Z,5.40
2022-08-27T16:09:29.828Z,6.20
2022-08-27T16:12:58.237Z,5.90
2022-08-27T16:16:31.185Z,5.60
2022-08-27T16:19:59.818Z,5.50
2022-08-27T16:23:28.808Z,4.90
2022-08-27T16:27:01.247Z,6.20
2022-08-27T16:30:29.781Z,5.70
2022-08-27T16:34:01.133Z,5.40
2022-08-27T16:37:28.954Z,5.00
2022-08-27T16:41:02.068Z,5.00
2022-08-27T16:44:32.400Z,5.10
2022-08-27T16:48:19.351Z,4.80
2022-08-27T16:51:48.899Z,5.40
2022-08-27T16:55:15.507Z,5.40
2022-08-27T16:58:42.989Z,6.50
2022-08-27T17:02:16.144Z,7.70
2022-08-27T17:05:43.086Z,6.20
2022-08-27T17:09:10.588Z,6.20
2022-08-27T17:12:39.360Z,6.80
2022-08-27T17:16:07.304Z,6.60
2022-08-27T17:19:37.406Z,5.70
2022-08-27T17:23:05.420Z,5.70
2022-08-27T17:26:35.206Z,6.40
2022-08-27T17:30:02.259Z,6.10
2022-08-27T17:33:33.490Z,6.40
2022-08-27T17:37:08.553Z,6.80
2022-08-27T17:40:38.661Z,6.40
2022-08-27T17:44:11.977Z,6.00
2022-08-27T17:47:40.535Z,6.20
2022-08-27T17:51:11.579Z,6.60
2022-08-27T17:54:42.469Z,6.10
2022-08-27T18:02:10.633Z,6.60
2022-08-27T18:05:48.688Z,7.50
2022-08-27T18:09:24.823Z,7.60
2022-08-27T18:12:53.400Z,7.90
2022-08-27T18:16:30.717Z,8.30
2022-08-27T18:20:06.102Z,9.20
2022-08-27T18:23:35.475Z,10.70
2022-08-27T18:27:07.896Z,10.70
2022-08-27T18:30:35.740Z,11.00
2022-08-27T18:34:05.118Z,11.90
2022-08-27T18:37:39.993Z,12.50
2022-08-27T18:41:13.492Z,14.90
2022-08-27T18:44:53.365Z,14.00
2022-08-27T18:48:29.516Z,14.10
2022-08-27T18:52:05.206Z,13.60
2022-08-27T18:55:38.495Z,10.80
2022-08-27T18:59:25.885Z,10.90
2022-08-27T19:02:54.824Z,11.40
2022-08-27T19:06:23.556Z,11.20
2022-08-27T19:09:53.497Z,10.30
2022-08-27T19:13:23.962Z,12.60
2022-08-27T19:16:56.555Z,10.60
2022-08-27T19:20:27.900Z,10.70
2022-08-27T19:23:57.151Z,11.00
2022-08-27T19:27:38.959Z,11.20
2022-08-27T19:31:08.852Z,10.40
2022-08-27T19:34:43.231Z,9.90
2022-08-27T19:38:17.895Z,9.30
2022-08-27T19:41:47.224Z,9.80
2022-08-27T19:45:24.428Z,9.10
2022-08-27T19:48:56.232Z,9.30
2022-08-27T19:52:31.901Z,9.40
2022-08-27T19:56:01.546Z,8.80
2022-08-27T19:59:36.584Z,9.60
2022-08-27T20:03:11.070Z,10.10
2022-08-27T20:06:39.175Z,10.30
2022-08-27T20:10:09.280Z,10.60
2022-08-27T20:13:38.023Z,10.20
2022-08-27T20:17:17.965Z,11.60
2022-08-27T20:20:45.675Z,11.30
2022-08-27T20:24:16.047Z,11.40
2022-08-27T20:27:43.603Z,11.80
2022-08-27T20:31:11.934Z,11.10
2022-08-27T20:34:49.574Z,11.80
2022-08-27T20:38:20.668Z,12.30
2022-08-27T20:41:51.913Z,11.70
2022-08-27T20:45:19.889Z,11.70
2022-08-27T20:48:50.222Z,12.40
2022-08-27T20:52:19.526Z,11.90
2022-08-27T20:55:49.719Z,11.70
2022-08-27T20:59:36.642Z,12.10
2022-08-27T21:03:06.475Z,12.00
2022-08-27T21:06:33.857Z,11.40
2022-08-27T21:10:01.567Z,11.90
2022-08-27T21:13:51.147Z,12.10
2022-08-27T21:17:24.609Z,12.80
2022-08-27T21:20:57.795Z,11.20
2022-08-27T21:24:29.171Z,12.80
2022-08-27T21:28:01.366Z,11.70
2022-08-27T21:31:34.388Z,13.00
2022-08-27T21:35:03.832Z,13.10
2022-08-27T21:38:31.322Z,12.40
2022-08-27T21:42:01.814Z,12.40
2022-08-27T21:45:29.106Z,12.90
2022-08-27T21:48:59.099Z,12.80
2022-08-27T21:52:29.028Z,12.90
2022-08-27T21:55:59.465Z,11.90
2022-08-27T21:59:26.990Z,13.20
2022-08-27T22:02:57.430Z,13.10
2022-08-27T22:06:26.011Z,12.70
2022-08-27T22:09:56.436Z,13.10
2022-08-27T22:13:24.680Z,15.50
2022-08-27T22:16:52.037Z,13.60
2022-08-27T22:20:19.871Z,13.10
2022-08-27T22:23:47.537Z,13.00
2022-08-27T22:27:15.249Z,13.70
2022-08-27T22:30:43.174Z,13.60
2022-08-27T22:34:14.975Z,13.60
2022-08-27T22:37:43.229Z,14.10
2022-08-27T22:41:12.736Z,15.50
2022-08-27T22:44:42.817Z,18.30
2022-08-27T22:48:09.769Z,17.80
2022-08-27T22:51:51.338Z,20.70
2022-08-27T22:55:22.583Z,18.30
2022-08-27T22:58:50.393Z,18.50
2022-08-27T23:02:18.152Z,17.70
2022-08-27T23:05:45.795Z,16.30
2022-08-27T23:09:13.877Z,17.10
2022-08-27T23:12:40.550Z,15.10
2022-08-27T23:16:14.139Z,15.40
2022-08-27T23:19:43.873Z,15.60
2022-08-27T23:23:13.799Z,15.70
2022-08-27T23:26:58.368Z,14.70
2022-08-27T23:30:26.710Z,15.60
2022-08-27T23:33:56.200Z,15.30
2022-08-27T23:37:25.413Z,16.10
2022-08-27T23:40:53.717Z,15.70
2022-08-27T23:44:20.753Z,14.50
2022-08-27T23:47:48.552Z,14.60
2022-08-27T23:51:15.330Z,15.10
2022-08-27T23:54:42.328Z,15.30
2022-08-27T23:58:10.312Z,15.10
